Time,TemperatureF,DewpointF,PressureIn,WindDirection,WindDirectionDegrees,WindSpeedMPH,WindSpeedGustMPH,Humidity,HourlyPrecipIn,Conditions,Clouds,dailyrainin,SolarRadiationWatts/m^2,SoftwareType,DateUTC
2013-03-27 00:00:00,33.3,31.8,30.14,WNW,289,1.0,2.0,94,0.00,-SN,,0.00,0.0,WeatherDisplay:10.37,2013-03-27 04:00:00,
2013-03-27 00:05:00,33.3,31.8,30.14,WNW,286,1.2,2.0,94,0.00,-SN,,0.00,0.0,WeatherDisplay:10.37,2013-03-27 04:05:00,
2013-03-27 00:10:00,33.4,31.9,30.13,WNW,284,1.1,2.3,94,0.00,-SN,,0.00,0.0,WeatherDisplay:10.37,2013-03-27 04:10:00,
2013-03-27 00:15:00,33.5,32.0,30.13,WSW,250,2.0,3.0,94,0.00,-SN,,0.00,0.0,WeatherDisplay:10.37,2013-03-27 04:15:00,
2013-03-27 00:20:00,33.6,32.1,30.14,West,277,3.1,4.6,94,0.00,-SN,,0.00,0.0,WeatherDisplay:10.37,2013-03-27 04:20:00,
2013-03-27 00:25:00,33.6,32.1,30.14,West,275,1.7,3.5,94,0.00,-SN,,0.00,0.0,WeatherDisplay:10.37,2013-03-27 04:25:00,
2013-03-27 00:30:00,33.7,32.2,30.13,West,280,1.3,3.0,94,0.00,-SN,,0.00,0.0,WeatherDisplay:10.37,2013-03-27 04:30:00,
2013-03-27 00:35:00,33.7,32.2,30.13,WNW,301,1.6,2.3,94,0.00,-SN,,0.00,0.0,WeatherDisplay:10.37,2013-03-27 04:35:00,
2013-03-27 00:40:00,33.7,32.2,30.13,West,281,1.5,3.5,94,0.00,-SN,,0.00,0.0,WeatherDisplay:10.37,2013-03-27 04:40:00,
2013-03-27 00:45:00,33.7,32.2,30.13,WSW,253,1.9,3.5,94,0.00,-SN,,0.00,0.0,WeatherDisplay:10.37,2013-03-27 04:45:00,
2013-03-27 00:50:00,33.8,32.3,30.13,West,265,1.7,3.5,94,0.00,-SN,,0.00,0.0,WeatherDisplay:10.37,2013-03-27 04:50:00,
2013-03-27 00:55:00,33.8,32.3,30.13,West,274,3.0,4.6,94,0.00,-SN,,0.00,0.0,WeatherDisplay:10.37,2013-03-27 04:55:00,
2013-03-27 01:00:00,33.8,32.3,30.13,West,273,2.2,3.5,94,0.00,-SN,,0.00,0.0,WeatherDisplay:10.37,2013-03-27 05:00:00,
2013-03-27 01:05:00,33.8,32.3,30.13,WNW,295,3.8,5.8,94,0.00,-SN,,0.00,0.0,WeatherDisplay:10.37,2013-03-27 05:05:00,
2013-03-27 01:10:00,33.8,32.3,30.13,West,281,7.0,10.4,94,0.00,-SN,,0.00,0.0,WeatherDisplay:10.37,2013-03-27 05:10:00,
2013-03-27 01:15:00,33.8,32.3,30.13,West,270,4.0,5.8,94,0.00,-SN,,0.00,0.0,WeatherDisplay:10.37,2013-03-27 05:15:00,
2013-03-27 01:20:00,33.8,32.0,30.13,West,281,5.3,6.9,93,0.00,-SN,,0.00,0.0,WeatherDisplay:10.37,2013-03-27 05:20:00,
2013-03-27 01:25:00,33.8,32.0,30.13,WSW,249,3.0,5.8,93,0.00,-SN,,0.00,0.0,WeatherDisplay:10.37,2013-03-27 05:25:00,
2013-03-27 01:30:00,33.8,32.0,30.13,WNW,299,4.0,4.6,93,0.00,-SN,,0.00,0.0,WeatherDisplay:10.37,2013-03-27 05:30:00,
2013-03-27 01:35:00,33.9,32.1,30.13,West,259,4.2,5.8,93,0.00,-SN,,0.00,0.0,WeatherDisplay:10.37,2013-03-27 05:35:00,
2013-03-27 01:40:00,33.9,31.8,30.13,WNW,288,3.7,5.0,92,0.00,-SN,,0.00,0.0,WeatherDisplay:10.37,2013-03-27 05:40:00,
2013-03-27 01:45:00,33.9,31.8,30.13,WNW,300,3.6,4.0,92,0.00,-SN,,0.00,0.0,WeatherDisplay:10.37,2013-03-27 05:45:00,
2013-03-27 01:50:00,33.9,31.8,30.13,WNW,286,3.2,6.0,92,0.00,-SN,,0.00,0.0,WeatherDisplay:10.37,2013-03-27 05:50:00,
2013-03-27 01:55:00,33.9,31.8,30.13,WNW,283,2.6,5.0,92,0.00,-SN,,0.00,0.0,WeatherDisplay:10.37,2013-03-27 05:55:00,
2013-03-27 02:00:00,33.9,31.6,30.13,West,269,2.7,4.6,91,0.00,-SN,,0.00,0.0,WeatherDisplay:10.37,2013-03-27 06:00:00,
2013-03-27 02:05:00,33.8,31.5,30.13,West,269,2.7,3.5,91,0.00,-SN,,0.00,0.0,WeatherDisplay:10.37,2013-03-27 06:05:00,
2013-03-27 02:10:00,33.8,31.5,30.13,West,280,2.9,4.6,91,0.00,-SN,,0.00,0.0,WeatherDisplay:10.37,2013-03-27 06:10:00,
2013-03-27 02:15:00,33.8,31.5,30.13,WNW,284,3.8,4.6,91,0.00,-SN,,0.00,0.0,WeatherDisplay:10.37,2013-03-27 06:15:00,
2013-03-27 02:20:00,33.7,31.4,30.13,WNW,283,4.9,6.9,91,0.00,-SN,,0.00,0.0,WeatherDisplay:10.37,2013-03-27 06:20:00,
2013-03-27 02:25:00,33.8,31.5,30.13,West,277,4.4,5.8,91,0.00,-SN,,0.00,0.0,WeatherDisplay:10.37,2013-03-27 06:25:00,
2013-03-27 02:30:00,33.7,31.6,30.13,WNW,287,3.5,4.0,92,0.00,-SN,,0.00,0.0,WeatherDisplay:10.37,2013-03-27 06:30:00,
2013-03-27 02:35:00,33.7,31.6,30.13,West,279,2.6,5.0,92,0.00,-SN,,0.00,0.0,WeatherDisplay:10.37,2013-03-27 06:35:00,
2013-03-27 02:40:00,33.7,31.6,30.13,WNW,284,4.3,6.9,92,0.00,-SN,,0.00,0.0,WeatherDisplay:10.37,2013-03-27 06:40:00,
2013-03-27 02:45:00,33.7,31.6,30.13,West,260,3.7,8.1,92,0.00,-SN,,0.00,0.0,WeatherDisplay:10.37,2013-03-27 06:45:00,
2013-03-27 02:50:00,33.7,31.6,30.13,WNW,294,4.4,9.2,92,0.01,-SN,,0.01,0.0,WeatherDisplay:10.37,2013-03-27 06:50:00,
2013-03-27 02:55:00,33.7,31.6,30.13,WNW,296,4.4,6.9,92,0.01,-SN,,0.01,0.0,WeatherDisplay:10.37,2013-03-27 06:55:00,
2013-03-27 03:00:00,33.6,31.5,30.13,West,261,5.3,7.0,92,0.01,-SN,,0.01,0.0,WeatherDisplay:10.37,2013-03-27 07:00:00,
2013-03-27 03:05:00,33.6,31.5,30.13,West,270,4.7,6.9,92,0.01,-SN,,0.01,0.0,WeatherDisplay:10.37,2013-03-27 07:05:00,
2013-03-27 03:10:00,33.6,31.5,30.13,West,278,2.0,3.5,92,0.01,-SN,,0.01,0.0,WeatherDisplay:10.37,2013-03-27 07:10:00,
2013-03-27 03:15:00,33.5,31.7,30.13,WNW,292,3.6,4.6,93,0.01,-SN,,0.01,0.0,WeatherDisplay:10.37,2013-03-27 07:15:00,
2013-03-27 03:20:00,33.4,31.6,30.12,NW,305,4.2,6.9,93,0.01,-SN,,0.01,0.0,WeatherDisplay:10.37,2013-03-27 07:20:00,
2013-03-27 03:25:00,33.3,31.5,30.12,WNW,289,3.9,4.6,93,0.01,-SN,,0.01,0.0,WeatherDisplay:10.37,2013-03-27 07:25:00,
2013-03-27 03:30:00,33.3,31.5,30.12,WNW,287,4.1,6.9,93,0.01,-SN,,0.01,0.0,WeatherDisplay:10.37,2013-03-27 07:30:00,
2013-03-27 03:35:00,33.2,31.4,30.12,WNW,286,3.2,6.9,93,0.01,-SN,,0.01,0.0,WeatherDisplay:10.37,2013-03-27 07:35:00,
2013-03-27 03:40:00,33.2,31.7,30.12,West,263,3.2,6.0,94,0.01,-SN,,0.01,0.0,WeatherDisplay:10.37,2013-03-27 07:40:00,
2013-03-27 03:45:00,33.1,31.6,30.12,West,276,4.0,6.9,94,0.01,-SN,,0.01,0.0,WeatherDisplay:10.37,2013-03-27 07:45:00,
2013-03-27 03:50:00,33.1,31.6,30.12,West,279,2.4,4.0,94,0.00,-SN,,0.01,0.0,WeatherDisplay:10.37,2013-03-27 07:50:00,
2013-03-27 03:55:00,33.1,31.6,30.12,West,267,3.7,5.8,94,0.00,-SN,,0.01,0.0,WeatherDisplay:10.37,2013-03-27 07:55:00,
2013-03-27 04:01:00,33.1,31.6,30.12,WNW,284,4.9,7.0,94,0.00,-SN,,0.01,0.0,WeatherDisplay:10.37,2013-03-27 08:01:00,
2013-03-27 04:06:00,33.0,31.5,30.12,West,281,4.6,5.8,94,0.00,-SN,,0.01,0.0,WeatherDisplay:10.37,2013-03-27 08:06:00,
2013-03-27 04:11:00,33.0,31.5,30.12,West,281,3.4,4.6,94,0.00,-SN,,0.01,0.0,WeatherDisplay:10.37,2013-03-27 08:11:00,
2013-03-27 04:16:00,33.0,31.5,30.12,West,281,3.1,5.8,94,0.00,-SN,,0.01,0.0,WeatherDisplay:10.37,2013-03-27 08:16:00,
2013-03-27 04:21:00,33.0,31.5,30.12,WNW,286,3.0,4.6,94,0.00,-SN,,0.01,0.0,WeatherDisplay:10.37,2013-03-27 08:21:00,
2013-03-27 04:26:00,33.0,31.5,30.12,WNW,296,4.1,4.6,94,0.00,-SN,,0.01,0.0,WeatherDisplay:10.37,2013-03-27 08:26:00,
2013-03-27 04:31:00,33.0,31.5,30.12,WSW,252,5.4,8.1,94,0.00,-SN,,0.01,0.0,WeatherDisplay:10.37,2013-03-27 08:31:00,
2013-03-27 04:36:00,33.0,31.5,30.12,WSW,246,3.8,4.6,94,0.00,-SN,,0.01,0.0,WeatherDisplay:10.37,2013-03-27 08:36:00,
2013-03-27 04:41:00,33.0,31.5,30.13,WNW,282,5.4,8.0,94,0.00,-SN,,0.01,0.0,WeatherDisplay:10.37,2013-03-27 08:41:00,
2013-03-27 04:46:00,33.0,31.5,30.13,WNW,296,3.5,5.8,94,0.00,-SN,,0.01,0.0,WeatherDisplay:10.37,2013-03-27 08:46:00,
2013-03-27 04:51:00,33.0,31.5,30.12,West,273,3.7,4.6,94,0.00,-SN,,0.01,0.0,WeatherDisplay:10.37,2013-03-27 08:51:00,
2013-03-27 04:56:00,33.0,31.5,30.13,WSW,255,4.1,5.8,94,0.00,-SN,,0.01,0.0,WeatherDisplay:10.37,2013-03-27 08:56:00,
2013-03-27 05:01:00,33.0,31.5,30.13,West,269,3.6,6.9,94,0.00,-SN,,0.01,0.0,WeatherDisplay:10.37,2013-03-27 09:01:00,
2013-03-27 05:06:00,33.0,31.5,30.13,West,276,4.4,8.1,94,0.00,OVC,,0.01,0.0,WeatherDisplay:10.37,2013-03-27 09:06:00,
2013-03-27 05:11:00,33.0,31.5,30.13,WNW,286,3.0,4.6,94,0.00,OVC,,0.01,0.0,WeatherDisplay:10.37,2013-03-27 09:11:00,
2013-03-27 05:16:00,33.0,31.5,30.13,West,281,4.1,6.0,94,0.00,OVC,,0.01,0.0,WeatherDisplay:10.37,2013-03-27 09:16:00,
2013-03-27 05:21:00,33.0,31.5,30.13,WNW,290,4.2,8.1,94,0.00,OVC,,0.01,0.0,WeatherDisplay:10.37,2013-03-27 09:21:00,
2013-03-27 05:26:00,33.0,31.5,30.13,West,265,4.0,5.8,94,0.00,OVC,,0.01,0.0,WeatherDisplay:10.37,2013-03-27 09:26:00,
2013-03-27 05:31:00,33.0,31.5,30.13,WNW,294,4.6,7.0,94,0.00,OVC,,0.01,0.0,WeatherDisplay:10.37,2013-03-27 09:31:00,
2013-03-27 05:36:00,33.0,31.5,30.13,WNW,293,4.0,6.9,94,0.00,OVC,,0.01,0.0,WeatherDisplay:10.37,2013-03-27 09:36:00,
2013-03-27 05:41:00,33.0,31.5,30.13,WNW,300,6.1,9.2,94,0.00,OVC,,0.01,0.0,WeatherDisplay:10.37,2013-03-27 09:41:00,
2013-03-27 05:46:00,33.0,31.5,30.14,WSW,252,4.8,9.2,94,0.00,OVC,,0.01,0.0,WeatherDisplay:10.37,2013-03-27 09:46:00,
2013-03-27 05:51:00,33.1,31.6,30.14,WSW,257,3.9,6.0,94,0.00,OVC,,0.01,0.0,WeatherDisplay:10.37,2013-03-27 09:51:00,
2013-03-27 05:56:00,33.1,31.3,30.14,WNW,300,4.4,9.2,93,0.00,OVC,,0.01,0.0,WeatherDisplay:10.37,2013-03-27 09:56:00,
2013-03-27 06:01:00,33.1,31.3,30.14,WNW,287,5.4,9.2,93,0.00,OVC,,0.01,0.0,WeatherDisplay:10.37,2013-03-27 10:01:00,
2013-03-27 06:06:00,33.1,31.3,30.14,WNW,287,6.4,10.4,93,0.00,OVC,,0.01,0.0,WeatherDisplay:10.37,2013-03-27 10:06:00,
2013-03-27 06:11:00,33.2,31.4,30.14,WNW,300,4.4,10.4,93,0.00,OVC,,0.01,0.0,WeatherDisplay:10.37,2013-03-27 10:11:00,
2013-03-27 06:16:00,33.2,31.4,30.14,WNW,296,5.3,8.1,93,0.00,OVC,,0.01,0.0,WeatherDisplay:10.37,2013-03-27 10:16:00,
2013-03-27 06:21:00,33.2,31.1,30.15,WNW,292,4.6,6.0,92,0.00,OVC,,0.01,0.0,WeatherDisplay:10.37,2013-03-27 10:21:00,
2013-03-27 06:26:00,33.2,31.1,30.15,West,277,5.9,11.5,92,0.00,OVC,,0.01,0.0,WeatherDisplay:10.37,2013-03-27 10:26:00,
2013-03-27 06:31:00,33.2,31.1,30.15,West,281,5.3,8.1,92,0.00,OVC,,0.01,0.0,WeatherDisplay:10.37,2013-03-27 10:31:00,
2013-03-27 06:36:00,33.2,31.1,30.15,WNW,295,2.6,6.9,92,0.00,OVC,,0.01,0.0,WeatherDisplay:10.37,2013-03-27 10:36:00,
2013-03-27 06:41:00,33.2,31.1,30.15,WNW,291,8.0,11.5,92,0.00,OVC,,0.01,0.0,WeatherDisplay:10.37,2013-03-27 10:41:00,
2013-03-27 06:46:00,33.2,30.9,30.15,WNW,288,4.4,8.0,91,0.00,OVC,,0.01,0.0,WeatherDisplay:10.37,2013-03-27 10:46:00,
2013-03-27 06:51:00,33.2,30.9,30.15,West,266,4.9,8.0,91,0.00,OVC,,0.01,0.0,WeatherDisplay:10.37,2013-03-27 10:51:00,
2013-03-27 06:56:00,33.2,30.9,30.15,West,277,3.7,6.0,91,0.00,OVC,,0.01,0.0,WeatherDisplay:10.37,2013-03-27 10:56:00,
2013-03-27 07:01:00,33.1,30.8,30.15,West,280,3.0,4.6,91,0.00,OVC,,0.01,0.0,WeatherDisplay:10.37,2013-03-27 11:01:00,
2013-03-27 07:06:00,33.1,30.8,30.15,West,271,5.1,9.2,91,0.00,OVC,,0.01,0.0,WeatherDisplay:10.37,2013-03-27 11:06:00,
2013-03-27 07:11:00,33.0,30.4,30.16,West,277,5.6,10.0,90,0.00,OVC,,0.01,0.0,WeatherDisplay:10.37,2013-03-27 11:11:00,
2013-03-27 07:16:00,33.0,30.4,30.16,West,269,4.4,5.0,90,0.00,OVC,,0.01,0.0,WeatherDisplay:10.37,2013-03-27 11:16:00,
2013-03-27 07:21:00,32.9,30.3,30.16,WNW,285,5.6,8.1,90,0.00,OVC,,0.01,0.0,WeatherDisplay:10.37,2013-03-27 11:21:00,
2013-03-27 07:26:00,32.9,30.3,30.16,NW,309,5.6,8.1,90,0.00,OVC,,0.01,7.0,WeatherDisplay:10.37,2013-03-27 11:26:00,
2013-03-27 07:31:00,32.9,30.0,30.16,West,281,5.6,11.5,89,0.00,OVC,,0.01,11.0,WeatherDisplay:10.37,2013-03-27 11:31:00,
2013-03-27 07:36:00,32.8,29.6,30.16,WNW,285,5.0,7.0,88,0.00,OVC,,0.01,16.0,WeatherDisplay:10.37,2013-03-27 11:36:00,
2013-03-27 07:41:00,32.8,29.6,30.16,West,265,5.8,11.5,88,0.00,OVC,,0.01,21.0,WeatherDisplay:10.37,2013-03-27 11:41:00,
2013-03-27 07:46:00,32.9,29.5,30.16,West,276,4.6,8.1,87,0.00,OVC,,0.01,25.0,WeatherDisplay:10.37,2013-03-27 11:46:00,
2013-03-27 07:51:00,32.9,29.5,30.16,West,273,4.8,9.2,87,0.01,RA,,0.02,21.0,WeatherDisplay:10.37,2013-03-27 11:51:00,
2013-03-27 07:56:00,32.8,29.4,30.17,NW,312,6.6,10.4,87,0.01,RA,,0.02,21.0,WeatherDisplay:10.37,2013-03-27 11:56:00,
2013-03-27 08:01:00,32.8,29.4,30.17,West,278,4.1,11.5,87,0.01,OVC,,0.03,25.0,WeatherDisplay:10.37,2013-03-27 12:01:00,
2013-03-27 08:06:00,32.8,29.4,30.17,WNW,283,5.3,11.5,87,0.02,RA,,0.03,26.0,WeatherDisplay:10.37,2013-03-27 12:06:00,
2013-03-27 08:11:00,32.8,29.4,30.17,WNW,286,3.6,5.8,87,0.02,RA,,0.03,123.0,WeatherDisplay:10.37,2013-03-27 12:11:00,
2013-03-27 08:16:00,32.8,29.4,30.17,West,265,3.6,8.1,87,0.03,RA,,0.04,148.0,WeatherDisplay:10.37,2013-03-27 12:16:00,
2013-03-27 08:21:00,32.9,29.5,30.17,WNW,290,6.2,10.0,87,0.03,RA,,0.04,163.0,WeatherDisplay:10.37,2013-03-27 12:21:00,
2013-03-27 08:26:00,33.0,29.6,30.17,West,263,4.9,9.2,87,0.03,SCT,,0.04,183.0,WeatherDisplay:10.37,2013-03-27 12:26:00,
2013-03-27 08:31:00,33.2,29.8,30.17,West,281,7.0,11.5,87,0.03,SCT,,0.04,202.0,WeatherDisplay:10.37,2013-03-27 12:31:00,
2013-03-27 08:36:00,33.3,29.6,30.17,West,281,3.5,6.9,86,0.03,SCT,,0.04,221.0,WeatherDisplay:10.37,2013-03-27 12:36:00,
2013-03-27 08:41:00,33.5,29.8,30.18,WNW,289,8.0,11.5,86,0.03,SCT,,0.04,244.0,WeatherDisplay:10.37,2013-03-27 12:41:00,
2013-03-27 08:46:00,33.6,29.6,30.18,WNW,285,8.5,11.5,85,0.03,SCT,,0.04,264.0,WeatherDisplay:10.37,2013-03-27 12:46:00,
2013-03-27 08:51:00,33.8,29.5,30.18,West,275,7.0,10.4,84,0.02,SCT,,0.04,283.0,WeatherDisplay:10.37,2013-03-27 12:51:00,
2013-03-27 08:56:00,34.0,29.4,30.18,West,275,6.0,10.4,83,0.02,SCT,,0.04,297.0,WeatherDisplay:10.37,2013-03-27 12:56:00,
2013-03-27 09:01:00,34.2,29.9,30.18,WNW,283,6.6,9.2,84,0.02,SCT,,0.04,311.0,WeatherDisplay:10.37,2013-03-27 13:01:00,
2013-03-27 09:06:00,34.4,29.8,30.18,WNW,286,7.7,12.7,83,0.01,SCT,,0.04,329.0,WeatherDisplay:10.37,2013-03-27 13:06:00,
2013-03-27 09:11:00,34.6,30.0,30.18,West,273,6.0,9.2,83,0.01,SCT,,0.04,81.0,WeatherDisplay:10.37,2013-03-27 13:11:00,
2013-03-27 09:16:00,34.7,30.1,30.18,WNW,302,7.0,16.0,83,0.00,SCT,,0.04,348.0,WeatherDisplay:10.37,2013-03-27 13:16:00,
2013-03-27 09:21:00,34.6,29.7,30.19,West,267,8.6,12.7,82,0.00,SCT,,0.04,127.0,WeatherDisplay:10.37,2013-03-27 13:21:00,
2013-03-27 09:26:00,34.6,29.7,30.19,West,262,11.6,15.0,82,0.00,SCT,,0.04,121.0,WeatherDisplay:10.37,2013-03-27 13:26:00,
2013-03-27 09:31:00,34.8,29.9,30.18,West,277,9.7,13.8,82,0.00,SCT,,0.04,345.0,WeatherDisplay:10.37,2013-03-27 13:31:00,
2013-03-27 09:36:00,34.8,29.6,30.19,West,281,12.7,13.0,81,0.00,SCT,,0.04,128.0,WeatherDisplay:10.37,2013-03-27 13:36:00,
2013-03-27 09:41:00,34.9,29.7,30.18,NNW,336,8.2,10.4,81,0.00,SCT,,0.04,394.0,WeatherDisplay:10.37,2013-03-27 13:41:00,
2013-03-27 09:46:00,35.0,29.1,30.19,WNW,297,9.1,15.0,79,0.00,SCT,,0.04,123.0,WeatherDisplay:10.37,2013-03-27 13:46:00,
2013-03-27 09:51:00,35.2,29.3,30.19,WNW,299,8.2,12.0,79,0.00,SCT,,0.04,413.0,WeatherDisplay:10.37,2013-03-27 13:51:00,
2013-03-27 09:56:00,35.5,29.3,30.19,WNW,295,11.3,19.6,78,0.00,SCT,,0.04,408.0,WeatherDisplay:10.37,2013-03-27 13:56:00,
2013-03-27 10:01:00,35.5,29.0,30.19,WNW,298,12.1,16.1,77,0.00,SCT,,0.04,144.0,WeatherDisplay:10.37,2013-03-27 14:01:00,
2013-03-27 10:06:00,35.6,29.4,30.19,NNW,327,8.8,16.1,78,0.00,FEW,,0.04,388.0,WeatherDisplay:10.37,2013-03-27 14:06:00,
2013-03-27 10:11:00,36.2,29.7,30.19,WSW,248,7.4,10.4,77,0.00,FEW,,0.04,269.0,WeatherDisplay:10.37,2013-03-27 14:11:00,
2013-03-27 10:16:00,36.8,30.3,30.19,WNW,293,11.7,13.8,77,0.00,FEW,,0.04,171.0,WeatherDisplay:10.37,2013-03-27 14:16:00,
2013-03-27 10:21:00,36.4,28.9,30.19,WNW,286,9.6,15.0,74,0.00,FEW,,0.04,462.0,WeatherDisplay:10.37,2013-03-27 14:21:00,
2013-03-27 10:26:00,37.3,30.7,30.19,NW,311,7.7,11.5,77,0.00,FEW,,0.04,336.0,WeatherDisplay:10.37,2013-03-27 14:26:00,
2013-03-27 10:31:00,36.7,29.8,30.19,WNW,296,7.0,15.0,76,0.00,FEW,,0.04,193.0,WeatherDisplay:10.37,2013-03-27 14:31:00,
2013-03-27 10:36:00,36.2,29.7,30.19,NW,304,7.5,13.8,77,0.00,FEW,,0.04,204.0,WeatherDisplay:10.37,2013-03-27 14:36:00,
2013-03-27 10:41:00,36.2,29.7,30.19,WNW,292,8.7,12.7,77,0.00,FEW,,0.04,269.0,WeatherDisplay:10.37,2013-03-27 14:41:00,
2013-03-27 10:46:00,36.4,29.6,30.19,WNW,303,9.2,11.5,76,0.00,FEW,,0.04,269.0,WeatherDisplay:10.37,2013-03-27 14:46:00,
2013-03-27 10:51:00,36.9,30.4,30.19,NW,318,11.0,16.1,77,0.00,FEW,,0.04,283.0,WeatherDisplay:10.37,2013-03-27 14:51:00,
2013-03-27 10:56:00,37.1,29.9,30.19,West,275,7.6,12.7,75,0.00,FEW,,0.04,359.0,WeatherDisplay:10.37,2013-03-27 14:56:00,
2013-03-27 11:01:00,37.1,29.6,30.19,NW,307,8.0,11.5,74,0.00,FEW,,0.04,244.0,WeatherDisplay:10.37,2013-03-27 15:01:00,
2013-03-27 11:06:00,36.9,29.7,30.19,WSW,250,6.8,10.4,75,0.00,BKN,,0.04,301.0,WeatherDisplay:10.37,2013-03-27 15:06:00,
2013-03-27 11:11:00,36.9,29.7,30.19,West,271,10.4,15.0,75,0.00,BKN,,0.04,359.0,WeatherDisplay:10.37,2013-03-27 15:11:00,
2013-03-27 11:16:00,37.2,30.3,30.19,WNW,294,5.5,11.5,76,0.00,BKN,,0.04,294.0,WeatherDisplay:10.37,2013-03-27 15:16:00,
2013-03-27 11:21:00,37.2,29.7,30.19,WNW,298,6.4,10.4,74,0.00,BKN,,0.04,155.0,WeatherDisplay:10.37,2013-03-27 15:21:00,
2013-03-27 11:26:00,37.9,30.7,30.19,West,280,9.9,17.3,75,0.00,BKN,,0.04,417.0,WeatherDisplay:10.37,2013-03-27 15:26:00,
2013-03-27 11:31:00,38.9,31.6,30.19,WNW,290,7.5,11.0,75,0.00,BKN,,0.04,200.0,WeatherDisplay:10.37,2013-03-27 15:31:00,
2013-03-27 11:36:00,38.4,30.2,30.19,WSW,243,9.7,13.8,72,0.00,BKN,,0.04,313.0,WeatherDisplay:10.37,2013-03-27 15:36:00,
2013-03-27 11:41:00,38.5,30.3,30.20,WNW,286,9.3,15.0,72,0.00,BKN,,0.04,202.0,WeatherDisplay:10.37,2013-03-27 15:41:00,
2013-03-27 11:46:00,38.8,30.2,30.19,West,281,8.5,16.1,71,0.00,BKN,,0.04,517.0,WeatherDisplay:10.37,2013-03-27 15:46:00,
2013-03-27 11:51:00,38.8,30.9,30.20,NW,306,7.3,9.0,73,0.00,BKN,,0.04,149.0,WeatherDisplay:10.37,2013-03-27 15:51:00,
2013-03-27 11:56:00,39.0,31.1,30.20,WNW,294,8.9,11.5,73,0.00,BKN,,0.04,536.0,WeatherDisplay:10.37,2013-03-27 15:56:00,
2013-03-27 12:01:00,39.1,30.5,30.20,WSW,249,8.7,16.1,71,0.00,BKN,,0.04,178.0,WeatherDisplay:10.37,2013-03-27 16:01:00,
2013-03-27 12:06:00,39.2,31.3,30.20,NW,324,11.0,16.1,73,0.00,BKN,,0.04,724.0,WeatherDisplay:10.37,2013-03-27 16:06:00,
2013-03-27 12:11:00,39.9,30.9,30.20,WNW,296,6.3,12.7,70,0.00,BKN,,0.04,608.0,WeatherDisplay:10.37,2013-03-27 16:11:00,
2013-03-27 12:16:00,41.0,33.0,30.20,West,266,5.0,11.5,73,0.00,BKN,,0.04,483.0,WeatherDisplay:10.37,2013-03-27 16:16:00,
2013-03-27 12:21:00,40.2,31.5,30.20,WNW,284,9.9,13.0,71,0.00,BKN,,0.04,334.0,WeatherDisplay:10.37,2013-03-27 16:21:00,
2013-03-27 12:26:00,39.2,30.2,30.20,NW,323,7.7,13.8,70,0.00,BKN,,0.04,295.0,WeatherDisplay:10.37,2013-03-27 16:26:00,
2013-03-27 12:31:00,38.9,29.9,30.20,West,279,11.8,16.1,70,0.00,BKN,,0.04,390.0,WeatherDisplay:10.37,2013-03-27 16:31:00,
2013-03-27 12:36:00,39.0,30.0,30.20,West,279,6.7,10.4,70,0.00,BKN,,0.04,431.0,WeatherDisplay:10.37,2013-03-27 16:36:00,
2013-03-27 12:41:00,39.4,30.4,30.20,WSW,258,8.8,13.8,70,0.00,BKN,,0.04,320.0,WeatherDisplay:10.37,2013-03-27 16:41:00,
2013-03-27 12:46:00,39.4,30.1,30.21,NW,309,13.2,19.6,69,0.00,BKN,,0.04,302.0,WeatherDisplay:10.37,2013-03-27 16:46:00,
2013-03-27 12:51:00,39.5,30.9,30.21,WNW,302,7.7,10.4,71,0.00,BKN,,0.04,355.0,WeatherDisplay:10.37,2013-03-27 16:51:00,
2013-03-27 12:56:00,39.8,30.0,30.21,WNW,291,10.0,13.0,68,0.00,BKN,,0.04,374.0,WeatherDisplay:10.37,2013-03-27 16:56:00,
2013-03-27 13:01:00,40.0,29.9,30.21,WNW,296,10.0,14.0,67,0.00,BKN,,0.04,339.0,WeatherDisplay:10.37,2013-03-27 17:01:00,
2013-03-27 13:06:00,39.7,30.3,30.21,WNW,291,8.0,14.0,69,0.00,BKN,,0.04,411.0,WeatherDisplay:10.37,2013-03-27 17:06:00,
2013-03-27 13:11:00,40.4,30.3,30.21,WNW,291,8.0,14.0,67,0.00,BKN,,0.04,434.0,WeatherDisplay:10.37,2013-03-27 17:11:00,
2013-03-27 13:16:00,40.6,30.1,30.21,NNW,328,9.4,16.1,66,0.00,BKN,,0.04,489.0,WeatherDisplay:10.37,2013-03-27 17:16:00,
2013-03-27 13:21:00,41.0,30.9,30.20,NW,305,8.7,15.0,67,0.00,BKN,,0.04,411.0,WeatherDisplay:10.37,2013-03-27 17:21:00,
2013-03-27 13:27:00,41.2,29.9,30.20,NW,322,7.7,16.1,64,0.00,BKN,,0.04,480.0,WeatherDisplay:10.37,2013-03-27 17:27:00,
2013-03-27 13:32:00,41.6,30.3,30.20,WNW,296,10.0,13.0,64,0.00,BKN,,0.04,387.0,WeatherDisplay:10.37,2013-03-27 17:32:00,
2013-03-27 13:37:00,41.5,29.8,30.20,WNW,302,8.9,19.6,63,0.00,BKN,,0.04,517.0,WeatherDisplay:10.37,2013-03-27 17:37:00,
2013-03-27 13:42:00,41.9,30.6,30.20,WNW,296,10.4,13.0,64,0.00,BKN,,0.04,475.0,WeatherDisplay:10.37,2013-03-27 17:42:00,
2013-03-27 13:47:00,41.6,29.5,30.20,West,277,11.1,11.5,62,0.00,BKN,,0.05,478.0,WeatherDisplay:10.37,2013-03-27 17:47:00,
2013-03-27 13:52:00,42.0,29.1,30.20,WNW,286,12.2,16.1,60,0.01,RA,,0.05,478.0,WeatherDisplay:10.37,2013-03-27 17:52:00,
2013-03-27 13:57:00,41.7,29.6,30.20,NW,305,7.8,18.4,62,0.01,RA,,0.05,457.0,WeatherDisplay:10.37,2013-03-27 17:57:00,
2013-03-27 14:02:00,41.7,28.8,30.20,WNW,289,10.0,15.0,60,0.00,BKN,,0.05,461.0,WeatherDisplay:10.37,2013-03-27 18:02:00,
2013-03-27 14:07:00,41.8,29.4,30.20,WNW,301,12.0,16.0,61,0.00,BKN,,0.05,399.0,WeatherDisplay:10.37,2013-03-27 18:07:00,
2013-03-27 14:12:00,41.6,28.7,30.20,WNW,286,8.3,17.3,60,0.01,BKN,,0.05,341.0,WeatherDisplay:10.37,2013-03-27 18:12:00,
2013-03-27 14:17:00,41.5,28.2,30.19,NW,304,12.8,18.4,59,0.01,BKN,,0.05,288.0,WeatherDisplay:10.37,2013-03-27 18:17:00,
2013-03-27 14:22:00,41.3,28.4,30.19,NW,306,12.0,20.0,60,0.00,BKN,,0.05,276.0,WeatherDisplay:10.37,2013-03-27 18:22:00,
2013-03-27 14:27:00,40.9,28.1,30.19,WNW,282,9.5,15.0,60,0.01,BKN,,0.05,294.0,WeatherDisplay:10.37,2013-03-27 18:27:00,
2013-03-27 14:32:00,41.0,28.2,30.19,West,279,8.6,15.0,60,0.01,BKN,,0.05,258.0,WeatherDisplay:10.37,2013-03-27 18:32:00,
2013-03-27 14:37:00,41.0,27.8,30.19,WNW,299,6.8,11.5,59,0.01,BKN,,0.05,232.0,WeatherDisplay:10.37,2013-03-27 18:37:00,
2013-03-27 14:42:00,41.3,28.0,30.19,West,265,7.6,19.6,59,0.01,BKN,,0.05,276.0,WeatherDisplay:10.37,2013-03-27 18:42:00,
2013-03-27 14:47:00,41.4,28.5,30.19,WNW,298,6.0,12.7,60,0.01,BKN,,0.05,271.0,WeatherDisplay:10.37,2013-03-27 18:47:00,
2013-03-27 14:52:00,41.6,27.9,30.18,WNW,292,13.5,18.0,58,0.00,BKN,,0.05,250.0,WeatherDisplay:10.37,2013-03-27 18:52:00,
2013-03-27 14:57:00,41.5,27.8,30.18,WNW,290,8.0,12.0,58,0.00,BKN,,0.05,274.0,WeatherDisplay:10.37,2013-03-27 18:57:00,
2013-03-27 15:02:00,42.0,28.3,30.18,WNW,282,10.1,16.1,58,0.00,BKN,,0.05,281.0,WeatherDisplay:10.37,2013-03-27 19:02:00,
2013-03-27 15:07:00,42.0,27.9,30.18,WNW,296,7.9,15.0,57,0.00,BKN,,0.05,295.0,WeatherDisplay:10.37,2013-03-27 19:07:00,
2013-03-27 15:12:00,42.0,27.4,30.18,West,280,9.7,12.7,56,0.00,BKN,,0.05,302.0,WeatherDisplay:10.37,2013-03-27 19:12:00,
2013-03-27 15:17:00,42.2,27.6,30.18,WNW,283,9.0,13.0,56,0.00,BKN,,0.05,290.0,WeatherDisplay:10.37,2013-03-27 19:17:00,
2013-03-27 15:22:00,42.2,27.2,30.18,West,270,9.9,12.7,55,0.00,BKN,,0.05,279.0,WeatherDisplay:10.37,2013-03-27 19:22:00,
2013-03-27 15:27:00,42.7,28.0,30.18,WNW,291,6.0,12.0,56,0.00,BKN,,0.05,309.0,WeatherDisplay:10.37,2013-03-27 19:27:00,
2013-03-27 15:32:00,42.7,27.2,30.18,WNW,291,12.0,20.0,54,0.00,BKN,,0.05,327.0,WeatherDisplay:10.37,2013-03-27 19:32:00,
2013-03-27 15:37:00,42.6,27.1,30.17,WNW,286,13.0,18.0,54,0.00,BKN,,0.05,362.0,WeatherDisplay:10.37,2013-03-27 19:37:00,
2013-03-27 15:42:00,42.9,27.8,30.18,West,279,11.2,17.0,55,0.00,BKN,,0.05,362.0,WeatherDisplay:10.37,2013-03-27 19:42:00,
2013-03-27 15:47:00,43.0,27.5,30.17,WNW,287,10.0,15.0,54,0.00,BKN,,0.05,367.0,WeatherDisplay:10.37,2013-03-27 19:47:00,
2013-03-27 15:52:00,43.3,27.8,30.17,WNW,282,9.0,20.0,54,0.00,BKN,,0.05,360.0,WeatherDisplay:10.37,2013-03-27 19:52:00,
2013-03-27 15:57:00,43.4,27.4,30.17,WNW,282,10.9,18.4,53,0.00,BKN,,0.05,345.0,WeatherDisplay:10.37,2013-03-27 19:57:00,
2013-03-27 16:02:00,43.6,27.6,30.17,West,273,10.0,17.3,53,0.00,BKN,,0.05,345.0,WeatherDisplay:10.37,2013-03-27 20:02:00,
2013-03-27 16:07:00,43.9,27.4,30.17,WNW,297,13.4,18.4,52,0.00,BKN,,0.05,329.0,WeatherDisplay:10.37,2013-03-27 20:07:00,
2013-03-27 16:12:00,43.8,28.2,30.17,WNW,292,8.8,15.0,54,0.00,BKN,,0.05,320.0,WeatherDisplay:10.37,2013-03-27 20:12:00,
2013-03-27 16:17:00,43.7,27.2,30.17,WNW,291,12.0,14.0,52,0.00,BKN,,0.05,308.0,WeatherDisplay:10.37,2013-03-27 20:17:00,
2013-03-27 16:22:00,43.7,27.2,30.17,WNW,297,8.0,10.0,52,0.00,BKN,,0.05,304.0,WeatherDisplay:10.37,2013-03-27 20:22:00,
2013-03-27 16:27:00,44.1,28.0,30.17,WNW,295,10.0,20.0,53,0.00,BKN,,0.05,294.0,WeatherDisplay:10.37,2013-03-27 20:27:00,
2013-03-27 16:32:00,43.7,27.2,30.17,West,278,14.0,20.0,52,0.00,BKN,,0.05,279.0,WeatherDisplay:10.37,2013-03-27 20:32:00,
2013-03-27 16:37:00,43.4,26.9,30.17,West,265,14.1,19.6,52,0.00,BKN,,0.05,255.0,WeatherDisplay:10.37,2013-03-27 20:37:00,
2013-03-27 16:42:00,43.3,27.3,30.17,WNW,282,13.1,13.8,53,0.00,BKN,,0.05,227.0,WeatherDisplay:10.37,2013-03-27 20:42:00,
2013-03-27 16:47:00,43.3,27.3,30.17,WNW,283,8.0,13.0,53,0.00,BKN,,0.05,190.0,WeatherDisplay:10.37,2013-03-27 20:47:00,
2013-03-27 16:52:00,43.2,27.2,30.17,WNW,289,11.1,13.8,53,0.00,BKN,,0.05,174.0,WeatherDisplay:10.37,2013-03-27 20:52:00,
2013-03-27 16:57:00,43.4,27.4,30.17,NW,309,3.7,11.5,53,0.00,BKN,,0.05,169.0,WeatherDisplay:10.37,2013-03-27 20:57:00,
2013-03-27 17:02:00,43.5,27.0,30.17,WNW,289,9.3,13.8,52,0.00,OVC,,0.05,192.0,WeatherDisplay:10.37,2013-03-27 21:02:00,
2013-03-27 17:07:00,43.5,27.0,30.17,WNW,291,12.5,16.1,52,0.00,OVC,,0.05,204.0,WeatherDisplay:10.37,2013-03-27 21:07:00,
2013-03-27 17:12:00,43.5,26.1,30.17,West,267,13.4,20.0,50,0.00,OVC,,0.05,199.0,WeatherDisplay:10.37,2013-03-27 21:12:00,
2013-03-27 17:17:00,43.5,27.5,30.17,WNW,296,6.5,9.2,53,0.00,OVC,,0.05,178.0,WeatherDisplay:10.37,2013-03-27 21:17:00,
2013-03-27 17:22:00,43.5,26.6,30.17,West,266,10.0,15.0,51,0.00,OVC,,0.05,162.0,WeatherDisplay:10.37,2013-03-27 21:22:00,
2013-03-27 17:27:00,43.4,26.5,30.17,West,277,12.1,19.6,51,0.00,OVC,,0.05,134.0,WeatherDisplay:10.37,2013-03-27 21:27:00,
2013-03-27 17:32:00,43.3,26.8,30.17,WNW,282,10.3,15.0,52,0.00,OVC,,0.05,125.0,WeatherDisplay:10.37,2013-03-27 21:32:00,
2013-03-27 17:37:00,43.2,27.2,30.17,West,281,6.6,12.7,53,0.00,OVC,,0.05,123.0,WeatherDisplay:10.37,2013-03-27 21:37:00,
2013-03-27 17:42:00,43.2,26.3,30.17,West,263,7.7,11.5,51,0.00,OVC,,0.05,123.0,WeatherDisplay:10.37,2013-03-27 21:42:00,
2013-03-27 17:47:00,43.2,26.3,30.17,NW,305,13.9,21.9,51,0.00,OVC,,0.05,111.0,WeatherDisplay:10.37,2013-03-27 21:47:00,
2013-03-27 17:52:00,42.9,26.0,30.17,NW,309,12.9,19.6,51,0.00,OVC,,0.05,109.0,WeatherDisplay:10.37,2013-03-27 21:52:00,
2013-03-27 17:57:00,42.7,26.3,30.17,WNW,287,12.4,21.9,52,0.00,OVC,,0.05,98.0,WeatherDisplay:10.37,2013-03-27 21:57:00,
2013-03-27 18:02:00,42.6,26.6,30.17,WNW,284,11.2,17.3,53,0.00,OVC,,0.05,104.0,WeatherDisplay:10.37,2013-03-27 22:02:00,
2013-03-27 18:07:00,42.6,26.6,30.18,WNW,296,12.0,16.0,53,0.00,OVC,,0.05,102.0,WeatherDisplay:10.37,2013-03-27 22:07:00,
2013-03-27 18:12:00,42.6,26.6,30.18,West,279,11.0,16.1,53,0.00,OVC,,0.05,95.0,WeatherDisplay:10.37,2013-03-27 22:12:00,
2013-03-27 18:17:00,42.7,27.2,30.18,West,279,7.1,13.8,54,0.00,OVC,,0.05,81.0,WeatherDisplay:10.37,2013-03-27 22:17:00,
2013-03-27 18:22:00,42.7,27.2,30.18,WNW,296,8.0,11.5,54,0.00,OVC,,0.05,76.0,WeatherDisplay:10.37,2013-03-27 22:22:00,
2013-03-27 18:27:00,42.7,27.2,30.18,West,272,6.3,9.2,54,0.00,OVC,,0.05,74.0,WeatherDisplay:10.37,2013-03-27 22:27:00,
2013-03-27 18:32:00,42.6,27.1,30.18,WNW,282,7.4,14.0,54,0.00,OVC,,0.05,42.0,WeatherDisplay:10.37,2013-03-27 22:32:00,
2013-03-27 18:37:00,42.5,27.0,30.18,WNW,288,7.1,13.8,54,0.00,OVC,,0.05,37.0,WeatherDisplay:10.37,2013-03-27 22:37:00,
2013-03-27 18:42:00,42.3,26.4,30.18,West,279,9.7,15.0,53,0.00,OVC,,0.05,35.0,WeatherDisplay:10.37,2013-03-27 22:42:00,
2013-03-27 18:47:00,42.2,27.2,30.18,WNW,286,5.4,9.2,55,0.00,OVC,,0.05,32.0,WeatherDisplay:10.37,2013-03-27 22:47:00,
2013-03-27 18:52:00,42.2,26.7,30.18,West,279,7.4,12.7,54,0.00,OVC,,0.05,28.0,WeatherDisplay:10.37,2013-03-27 22:52:00,
2013-03-27 18:57:00,42.1,27.1,30.18,SSW,209,7.0,12.7,55,0.00,OVC,,0.05,21.0,WeatherDisplay:10.37,2013-03-27 22:57:00,
2013-03-27 19:02:00,42.1,26.6,30.18,WNW,284,10.3,15.0,54,0.00,OVC,,0.05,23.0,WeatherDisplay:10.37,2013-03-27 23:02:00,
2013-03-27 19:07:00,42.0,26.1,30.18,WSW,257,7.5,11.5,53,0.00,OVC,,0.05,23.0,WeatherDisplay:10.37,2013-03-27 23:07:00,
2013-03-27 19:12:00,42.0,26.5,30.18,West,265,6.0,11.5,54,0.00,OVC,,0.05,16.0,WeatherDisplay:10.37,2013-03-27 23:12:00,
2013-03-27 19:17:00,41.9,26.9,30.18,WNW,290,7.5,13.8,55,0.00,OVC,,0.05,11.0,WeatherDisplay:10.37,2013-03-27 23:17:00,
2013-03-27 19:22:00,41.9,26.4,30.18,WNW,286,6.9,10.0,54,0.00,OVC,,0.05,9.0,WeatherDisplay:10.37,2013-03-27 23:22:00,
2013-03-27 19:27:00,41.9,26.4,30.18,West,275,7.0,9.2,54,0.00,OVC,,0.05,7.0,WeatherDisplay:10.37,2013-03-27 23:27:00,
2013-03-27 19:32:00,41.8,26.4,30.18,West,276,4.7,8.1,54,0.00,OVC,,0.05,7.0,WeatherDisplay:10.37,2013-03-27 23:32:00,
2013-03-27 19:37:00,41.8,26.4,30.18,West,279,6.0,13.8,54,0.00,OVC,,0.05,0.0,WeatherDisplay:10.37,2013-03-27 23:37:00,
2013-03-27 19:42:00,41.7,26.3,30.18,West,277,3.8,8.1,54,0.00,OVC,,0.05,0.0,WeatherDisplay:10.37,2013-03-27 23:42:00,
2013-03-27 19:47:00,41.6,26.6,30.18,West,262,8.2,11.5,55,0.00,OVC,,0.05,0.0,WeatherDisplay:10.37,2013-03-27 23:47:00,
2013-03-27 19:52:00,41.6,26.2,30.18,WNW,290,8.3,15.0,54,0.00,OVC,,0.05,0.0,WeatherDisplay:10.37,2013-03-27 23:52:00,
2013-03-27 19:57:00,41.6,26.6,30.18,WNW,282,5.7,11.5,55,0.00,OVC,,0.05,0.0,WeatherDisplay:10.37,2013-03-27 23:57:00,
2013-03-27 20:02:00,41.6,26.6,30.18,WSW,252,7.1,13.8,55,0.00,OVC,,0.05,0.0,WeatherDisplay:10.37,2013-03-28 00:02:00,
2013-03-27 20:07:00,41.5,27.0,30.18,WNW,296,6.7,9.2,56,0.00,OVC,,0.05,0.0,WeatherDisplay:10.37,2013-03-28 00:07:00,
2013-03-27 20:12:00,41.5,27.0,30.18,WNW,284,6.6,10.4,56,0.00,OVC,,0.05,0.0,WeatherDisplay:10.37,2013-03-28 00:12:00,
2013-03-27 20:17:00,41.5,27.4,30.18,West,265,4.2,8.1,57,0.00,OVC,,0.05,0.0,WeatherDisplay:10.37,2013-03-28 00:17:00,
2013-03-27 20:22:00,41.4,27.7,30.18,West,280,7.9,14.0,58,0.00,OVC,,0.05,0.0,WeatherDisplay:10.37,2013-03-28 00:22:00,
2013-03-27 20:27:00,41.3,28.0,30.18,West,280,6.3,11.5,59,0.00,OVC,,0.05,0.0,WeatherDisplay:10.37,2013-03-28 00:27:00,
2013-03-27 20:33:00,41.1,28.7,30.18,NW,304,6.0,9.0,61,0.00,OVC,,0.05,0.0,WeatherDisplay:10.37,2013-03-28 00:33:00,
2013-03-27 20:38:00,41.0,28.6,30.18,West,265,8.4,15.0,61,0.00,OVC,,0.05,0.0,WeatherDisplay:10.37,2013-03-28 00:38:00,
2013-03-27 20:43:00,40.9,28.9,30.18,NW,305,7.8,11.5,62,0.00,OVC,,0.05,0.0,WeatherDisplay:10.37,2013-03-28 00:43:00,
2013-03-27 20:48:00,40.8,29.2,30.19,WNW,294,6.8,11.5,63,0.00,OVC,,0.05,0.0,WeatherDisplay:10.37,2013-03-28 00:48:00,
2013-03-27 20:53:00,40.7,29.1,30.19,WNW,290,8.4,11.5,63,0.00,OVC,,0.05,0.0,WeatherDisplay:10.37,2013-03-28 00:53:00,
2013-03-27 20:58:00,40.7,29.5,30.18,WSW,258,8.4,11.5,64,0.00,OVC,,0.05,0.0,WeatherDisplay:10.37,2013-03-28 00:58:00,
2013-03-27 21:03:00,40.6,29.7,30.18,WSW,242,4.5,6.9,65,0.00,OVC,,0.05,0.0,WeatherDisplay:10.37,2013-03-28 01:03:00,
2013-03-27 21:08:00,40.5,29.7,30.18,WNW,291,8.1,11.5,65,0.00,OVC,,0.05,0.0,WeatherDisplay:10.37,2013-03-28 01:08:00,
2013-03-27 21:13:00,40.5,29.7,30.18,West,271,4.2,8.1,65,0.00,OVC,,0.05,0.0,WeatherDisplay:10.37,2013-03-28 01:13:00,
2013-03-27 21:18:00,40.4,29.6,30.19,West,265,7.8,13.0,65,0.00,OVC,,0.05,0.0,WeatherDisplay:10.37,2013-03-28 01:18:00,
2013-03-27 21:23:00,40.4,29.6,30.19,WNW,289,7.9,13.8,65,0.00,OVC,,0.05,0.0,WeatherDisplay:10.37,2013-03-28 01:23:00,
2013-03-27 21:28:00,40.2,29.7,30.19,West,263,8.5,11.5,66,0.00,OVC,,0.05,0.0,WeatherDisplay:10.37,2013-03-28 01:28:00,
2013-03-27 21:33:00,40.2,29.7,30.19,WNW,284,3.2,11.5,66,0.00,OVC,,0.05,0.0,WeatherDisplay:10.37,2013-03-28 01:33:00,
2013-03-27 21:38:00,40.1,29.6,30.19,WNW,290,6.3,13.8,66,0.00,OVC,,0.05,0.0,WeatherDisplay:10.37,2013-03-28 01:38:00,
2013-03-27 21:43:00,40.1,30.0,30.19,West,259,6.8,10.4,67,0.00,OVC,,0.05,0.0,WeatherDisplay:10.37,2013-03-28 01:43:00,
2013-03-27 21:48:00,40.0,29.6,30.19,WSW,251,5.3,11.5,66,0.00,OVC,,0.05,0.0,WeatherDisplay:10.37,2013-03-28 01:48:00,
2013-03-27 21:53:00,40.0,29.9,30.19,WNW,301,6.5,10.4,67,0.00,OVC,,0.05,0.0,WeatherDisplay:10.37,2013-03-28 01:53:00,
2013-03-27 21:58:00,39.9,29.8,30.19,WNW,288,7.6,9.2,67,0.00,OVC,,0.05,0.0,WeatherDisplay:10.37,2013-03-28 01:58:00,
2013-03-27 22:03:00,39.8,29.7,30.19,WNW,296,5.4,10.4,67,0.00,OVC,,0.05,0.0,WeatherDisplay:10.37,2013-03-28 02:03:00,
2013-03-27 22:08:00,39.8,29.7,30.20,West,263,7.6,11.5,67,0.00,OVC,,0.05,0.0,WeatherDisplay:10.37,2013-03-28 02:08:00,
2013-03-27 22:13:00,39.7,30.0,30.20,WNW,283,4.8,8.1,68,0.00,OVC,,0.05,0.0,WeatherDisplay:10.37,2013-03-28 02:13:00,
2013-03-27 22:18:00,39.7,30.0,30.19,WNW,286,5.5,5.8,68,0.00,OVC,,0.05,0.0,WeatherDisplay:10.37,2013-03-28 02:18:00,
2013-03-27 22:23:00,39.6,29.9,30.19,WSW,251,5.1,9.2,68,0.00,OVC,,0.05,0.0,WeatherDisplay:10.37,2013-03-28 02:23:00,
2013-03-27 22:28:00,39.6,29.9,30.20,West,279,4.5,9.2,68,0.00,OVC,,0.05,0.0,WeatherDisplay:10.37,2013-03-28 02:28:00,
2013-03-27 22:33:00,39.5,30.2,30.20,WSW,248,6.0,8.1,69,0.00,OVC,,0.05,0.0,WeatherDisplay:10.37,2013-03-28 02:33:00,
2013-03-27 22:38:00,39.4,30.1,30.19,West,270,4.9,9.2,69,0.00,OVC,,0.05,0.0,WeatherDisplay:10.37,2013-03-28 02:38:00,
2013-03-27 22:43:00,39.4,30.1,30.19,West,265,5.3,10.4,69,0.00,OVC,,0.05,0.0,WeatherDisplay:10.37,2013-03-28 02:43:00,
2013-03-27 22:48:00,39.4,29.7,30.19,West,266,7.3,9.2,68,0.00,OVC,,0.05,0.0,WeatherDisplay:10.37,2013-03-28 02:48:00,
2013-03-27 22:53:00,39.4,29.7,30.19,WSW,257,7.1,10.4,68,0.00,OVC,,0.05,0.0,WeatherDisplay:10.37,2013-03-28 02:53:00,
2013-03-27 22:58:00,39.3,30.0,30.20,West,270,3.7,4.6,69,0.00,OVC,,0.05,0.0,WeatherDisplay:10.37,2013-03-28 02:58:00,
2013-03-27 23:03:00,39.3,30.0,30.20,WNW,290,3.6,9.2,69,0.00,OVC,,0.05,0.0,WeatherDisplay:10.37,2013-03-28 03:03:00,
2013-03-27 23:08:00,39.2,29.9,30.20,West,279,3.9,3.9,69,0.00,OVC,,0.05,0.0,WeatherDisplay:10.37,2013-03-28 03:08:00,
2013-03-27 23:13:00,39.2,29.9,30.20,WNW,282,2.8,6.9,69,0.00,OVC,,0.05,0.0,WeatherDisplay:10.37,2013-03-28 03:13:00,
2013-03-27 23:18:00,39.2,29.9,30.20,WNW,295,7.8,9.2,69,0.00,OVC,,0.05,0.0,WeatherDisplay:10.37,2013-03-28 03:18:00,
2013-03-27 23:23:00,39.3,30.7,30.20,NW,312,11.9,17.3,71,0.00,OVC,,0.05,0.0,WeatherDisplay:10.37,2013-03-28 03:23:00,
2013-03-27 23:28:00,39.1,30.8,30.20,WNW,284,7.7,13.0,72,0.00,OVC,,0.05,0.0,WeatherDisplay:10.37,2013-03-28 03:28:00,
2013-03-27 23:33:00,38.9,31.0,30.20,West,272,5.3,6.9,73,0.00,OVC,,0.05,0.0,WeatherDisplay:10.37,2013-03-28 03:33:00,
2013-03-27 23:38:00,38.8,30.9,30.19,WNW,288,4.6,8.1,73,0.00,OVC,,0.05,0.0,WeatherDisplay:10.37,2013-03-28 03:38:00,
2013-03-27 23:43:00,38.8,30.9,30.19,West,278,5.0,8.1,73,0.00,OVC,,0.05,0.0,WeatherDisplay:10.37,2013-03-28 03:43:00,
2013-03-27 23:48:00,38.9,30.3,30.19,WNW,300,8.6,12.7,71,0.00,OVC,,0.05,0.0,WeatherDisplay:10.37,2013-03-28 03:48:00,
2013-03-27 23:53:00,39.1,29.4,30.19,WNW,298,9.3,17.3,68,0.00,OVC,,0.05,0.0,WeatherDisplay:10.37,2013-03-28 03:53:00,
2013-03-27 23:58:00,39.3,29.6,30.19,WNW,299,6.4,10.4,68,0.00,OVC,,0.05,0.0,WeatherDisplay:10.37,2013-03-28 03:58:00,